ENRS

Røst Airport

Norway
METAR ENRS 161350Z 31011KT 9999 VCSH FEW011 SCT025 03/01 Q0997
Observed Flight Rules
Dec-16 @ 13:50 UTC (an hour ago) Visual Flight Rules
Wind Visibility Clouds
310° at 11 knots 10,000+ meters
  • Few at 1,100' AGL
  • Scattered at 2,500' AGL
Temperatures Readings
Current 3°C / 37°F
Dewpoint 1°C / 34°F
Humidity 87%
Altimeter 29.44" Hg
Pressure 997 hPa
Elevation 4
METAR ENRS 161350Z 31011KT 9999 VCSH FEW011 SCT025 03/01 Q0997
Observed Flight Rules
Dec-16 @ 13:50 UTC
(an hour ago)
VFR
Wind Visibility
310° at 11 knots 10,000+ meters
Clouds
  • Few at 1,100' AGL
  • Scattered at 2,500' AGL
Temperature Dewpoint
3°C / 37°F 1°C / 34°F
Humidity Altimeter Pressure
87% 29.44" Hg 997 hPa